Brave M — 5IM425 — position and weather

sailwx.info

Track history (hours):
 
Tides and Currents Weather Stations Pressure Air Temp Water Temp Dewpoint Dewpoint Depression Visibility Wind Speed Wind Dir Waves Ship Positions

Brave M

Last reported at 2018-Jan-10 14:50 UTC. Time now 2018-Jan-20 05:36 UTC.
Position N 35°06' E 028°30'.
Warning: this ship's position is 9 days out of date.

Length 113 m; draft 9.2 m.

Type: Cargo ship. MMSI: 677032500.

Date/timePositionNaut miles runAvg speedWind from/ knotsBaromVisibWave heightAir tempDewpointWater temp
2018-Jan-10 14:50N 35°06' E 028°30'4 8.9
2018-Jan-10 14:25N 35°09' E 028°27'5 8.8
2018-Jan-10 13:53N 35°12' E 028°23'21 9.1
2018-Jan-10 11:36N 35°28' E 028°07'1 9.1
2018-Jan-10 11:30N 35°29' E 028°06'30 9.0
2018-Jan-10 08:09N 35°51' E 027°42'2 9.4
2018-Jan-10 07:57N 35°53' E 027°40'4 9.4
2018-Jan-10 07:30N 35°56' E 027°37'6 9.4
2018-Jan-10 06:55N 36°00' E 027°32'4 9.6
2018-Jan-10 06:30N 36°03' E 027°29'5 9.6
2018-Jan-10 06:00N 36°07' E 027°26'5 9.4
2018-Jan-10 05:30N 36°11' E 027°22'6 8.8
2018-Jan-10 04:52N 36°15' E 027°17'3 8.7
2018-Jan-10 04:28N 36°18' E 027°15'7 8.0
2018-Jan-10 03:40N 36°24' E 027°12'1 9.2
2018-Jan-10 03:30N 36°25' E 027°12'5 9.0
2018-Jan-10 03:00N 36°29' E 027°14'11 9.1
2018-Jan-10 01:47N 36°40' E 027°18'3 9.5
2018-Jan-10 01:29N 36°42' E 027°20'  
Track history (hours):
 
Tides and Currents Weather Stations Pressure Air Temp Water Temp Dewpoint Dewpoint Depression Visibility Wind Speed Wind Dir Waves Ship Positions

Brave M

Last reported at 2018-Jan-10 14:50 UTC. Time now 2018-Jan-20 05:36 UTC.
Position N 35°06' E 028°30'.
Warning: this ship's position is 9 days out of date.

Length 113 m; draft 9.2 m.

Type: Cargo ship. MMSI: 677032500.

Date/timePositionNaut miles runAvg speedWind from/ knotsBaromVisibWave heightAir tempDewpointWater temp
2018-Jan-10 14:50N 35°06' E 028°30'4 8.9
2018-Jan-10 14:25N 35°09' E 028°27'5 8.8
2018-Jan-10 13:53N 35°12' E 028°23'21 9.1
2018-Jan-10 11:36N 35°28' E 028°07'1 9.1
2018-Jan-10 11:30N 35°29' E 028°06'30 9.0
2018-Jan-10 08:09N 35°51' E 027°42'2 9.4
2018-Jan-10 07:57N 35°53' E 027°40'4 9.4
2018-Jan-10 07:30N 35°56' E 027°37'6 9.4
2018-Jan-10 06:55N 36°00' E 027°32'4 9.6
2018-Jan-10 06:30N 36°03' E 027°29'5 9.6
2018-Jan-10 06:00N 36°07' E 027°26'5 9.4
2018-Jan-10 05:30N 36°11' E 027°22'6 8.8
2018-Jan-10 04:52N 36°15' E 027°17'3 8.7
2018-Jan-10 04:28N 36°18' E 027°15'7 8.0
2018-Jan-10 03:40N 36°24' E 027°12'1 9.2
2018-Jan-10 03:30N 36°25' E 027°12'5 9.0
2018-Jan-10 03:00N 36°29' E 027°14'11 9.1
2018-Jan-10 01:47N 36°40' E 027°18'3 9.5
2018-Jan-10 01:29N 36°42' E 027°20'  

Dump ship's entire track history